createdAt,value
2018-04-08T00:01:11.958Z,96.20
2018-04-08T00:03:39.491Z,96.80
2018-04-08T00:06:07.015Z,97.30
2018-04-08T00:08:35.349Z,97.60
2018-04-08T00:11:02.877Z,97.60
2018-04-08T00:13:30.412Z,98.20
2018-04-08T00:15:57.927Z,98.50
2018-04-08T00:18:25.477Z,98.70
2018-04-08T00:20:53.012Z,98.80
2018-04-08T00:23:20.547Z,99.90
2018-04-08T00:25:48.814Z,99.90
2018-04-08T00:28:17.107Z,99.90
2018-04-08T00:30:44.611Z,99.90
2018-04-08T00:33:12.131Z,99.90
2018-04-08T00:35:39.656Z,99.90
2018-04-08T00:38:11.018Z,99.90
2018-04-08T00:40:39.509Z,99.90
2018-04-08T00:43:07.067Z,99.90
2018-04-08T00:45:34.588Z,99.90
2018-04-08T00:48:02.100Z,99.90
2018-04-08T00:50:29.640Z,99.90
2018-04-08T00:52:57.949Z,99.90
2018-04-08T00:55:25.494Z,99.90
2018-04-08T00:57:52.995Z,99.90
2018-04-08T01:00:20.515Z,99.90
2018-04-08T01:02:48.044Z,99.90
2018-04-08T01:05:15.566Z,99.90
2018-04-08T01:07:43.121Z,99.90
2018-04-08T01:10:10.658Z,99.90
2018-04-08T01:12:38.193Z,99.90
2018-04-08T01:15:05.725Z,99.90
2018-04-08T01:17:33.230Z,99.90
2018-04-08T01:20:00.780Z,99.90
2018-04-08T01:22:28.356Z,99.90
2018-04-08T01:24:55.870Z,99.90
2018-04-08T01:27:23.385Z,99.90
2018-04-08T01:29:50.913Z,99.90
2018-04-08T01:32:19.187Z,99.90
2018-04-08T01:34:47.499Z,99.90
2018-04-08T01:37:15.016Z,99.90
2018-04-08T01:39:42.546Z,99.90
2018-04-08T01:42:10.039Z,99.90
2018-04-08T01:44:38.352Z,99.90
2018-04-08T01:47:05.885Z,99.90
2018-04-08T01:49:33.410Z,99.90
2018-04-08T01:52:00.934Z,99.90
2018-04-08T01:54:28.446Z,99.90
2018-04-08T01:56:55.974Z,99.90
2018-04-08T01:59:24.067Z,99.90
2018-04-08T02:01:51.598Z,99.90
2018-04-08T02:04:19.186Z,99.90
2018-04-08T02:06:46.726Z,99.90
2018-04-08T02:09:14.228Z,99.90
2018-04-08T02:11:41.734Z,99.90
2018-04-08T02:14:09.374Z,99.90
2018-04-08T02:16:36.886Z,99.90
2018-04-08T02:19:04.427Z,99.90
2018-04-08T02:21:32.005Z,99.90
2018-04-08T02:23:59.553Z,99.90
2018-04-08T02:26:27.066Z,99.90
2018-04-08T02:28:54.575Z,99.90
2018-04-08T02:31:22.101Z,99.90
2018-04-08T02:33:49.613Z,99.90
2018-04-08T02:36:17.194Z,99.90
2018-04-08T02:38:45.456Z,99.90
2018-04-08T02:41:13.728Z,99.90
2018-04-08T02:43:42.086Z,99.90
2018-04-08T02:46:09.616Z,99.90
2018-04-08T02:48:37.139Z,99.90
2018-04-08T02:51:05.413Z,99.90
2018-04-08T02:53:33.696Z,99.90
2018-04-08T02:56:02.008Z,99.90
2018-04-08T02:58:29.555Z,99.90
2018-04-08T03:00:57.190Z,99.90
2018-04-08T03:03:24.796Z,99.90
2018-04-08T03:05:52.353Z,99.90
2018-04-08T03:08:19.867Z,99.90
2018-04-08T03:10:48.186Z,99.90
2018-04-08T03:13:15.699Z,99.90
2018-04-08T03:15:43.971Z,99.90
2018-04-08T03:18:11.494Z,99.90
2018-04-08T03:20:39.020Z,99.90
2018-04-08T03:23:06.521Z,99.90
2018-04-08T03:25:34.030Z,99.90
2018-04-08T03:28:01.543Z,99.90
2018-04-08T03:30:29.071Z,99.90
2018-04-08T03:32:56.567Z,99.90
2018-04-08T03:35:24.106Z,99.90
2018-04-08T03:37:51.651Z,99.90
2018-04-08T03:40:19.171Z,99.90
2018-04-08T03:42:46.698Z,99.90
2018-04-08T03:45:14.216Z,99.90
2018-04-08T03:47:41.745Z,99.90
2018-04-08T03:50:09.343Z,99.90
2018-04-08T03:52:36.882Z,99.90
2018-04-08T03:55:04.444Z,99.90
2018-04-08T03:57:32.717Z,99.90
2018-04-08T04:00:01.012Z,99.90
2018-04-08T04:02:28.571Z,99.90
2018-04-08T04:04:56.082Z,99.90
2018-04-08T04:07:23.605Z,99.90
2018-04-08T04:09:51.158Z,99.90
2018-04-08T04:12:18.710Z,99.90
2018-04-08T04:14:46.232Z,99.90
2018-04-08T04:17:13.810Z,99.90
2018-04-08T04:19:53.930Z,99.90
2018-04-08T04:25:49.909Z,99.90
2018-04-08T04:28:18.215Z,99.90
2018-04-08T04:30:45.752Z,99.90
2018-04-08T04:33:14.015Z,99.90
2018-04-08T04:35:41.551Z,99.90
2018-04-08T04:38:09.084Z,99.90
2018-04-08T04:40:36.587Z,99.90
2018-04-08T04:43:04.088Z,99.90
2018-04-08T04:45:31.617Z,99.90
2018-04-08T04:47:59.893Z,99.90
2018-04-08T04:50:28.938Z,99.90
2018-04-08T04:52:56.445Z,99.90
2018-04-08T04:55:24.004Z,99.90
2018-04-08T04:57:51.545Z,99.90
2018-04-08T05:00:19.078Z,99.90
2018-04-08T05:02:46.690Z,99.90
2018-04-08T05:05:14.207Z,99.90
2018-04-08T05:07:41.732Z,99.90
2018-04-08T05:10:09.237Z,99.90
2018-04-08T05:12:36.768Z,99.90
2018-04-08T05:15:04.294Z,99.90
2018-04-08T05:17:31.826Z,99.90
2018-04-08T05:19:59.346Z,99.90
2018-04-08T05:22:26.875Z,99.90
2018-04-08T05:24:55.153Z,99.90
2018-04-08T05:27:22.695Z,99.90
2018-04-08T05:29:50.212Z,99.90
2018-04-08T05:32:17.767Z,99.90
2018-04-08T05:34:45.330Z,99.90
2018-04-08T05:37:12.874Z,99.90
2018-04-08T05:39:40.399Z,99.90
2018-04-08T05:42:08.695Z,99.90
2018-04-08T05:44:36.232Z,99.90
2018-04-08T05:47:03.777Z,99.90
2018-04-08T05:49:31.296Z,99.90
2018-04-08T05:51:58.809Z,99.90
2018-04-08T05:54:26.324Z,99.90
2018-04-08T05:56:53.866Z,99.90
2018-04-08T05:59:21.417Z,99.90
2018-04-08T06:01:49.012Z,99.90
2018-04-08T06:04:16.572Z,99.90
2018-04-08T06:06:44.897Z,99.90
2018-04-08T06:09:12.475Z,99.90
2018-04-08T06:11:40.041Z,99.90
2018-04-08T06:14:07.563Z,99.90
2018-04-08T06:16:35.126Z,99.90
2018-04-08T06:19:03.431Z,99.90
2018-04-08T06:21:31.011Z,99.90
2018-04-08T06:23:58.554Z,99.90
2018-04-08T06:26:26.120Z,99.90
2018-04-08T06:28:53.668Z,99.90
2018-04-08T06:31:21.928Z,99.90
2018-04-08T06:33:50.245Z,99.90
2018-04-08T06:36:17.786Z,99.90
2018-04-08T06:38:45.308Z,99.90
2018-04-08T06:41:12.848Z,99.90
2018-04-08T06:43:40.381Z,99.90
2018-04-08T06:46:07.920Z,99.90
2018-04-08T06:48:35.427Z,99.90
2018-04-08T06:51:02.966Z,99.90
2018-04-08T06:53:30.490Z,99.90
2018-04-08T06:55:58.759Z,99.90
2018-04-08T06:58:27.123Z,99.90
2018-04-08T07:00:54.675Z,99.90
2018-04-08T07:03:22.333Z,99.90
2018-04-08T07:05:49.843Z,99.90
2018-04-08T07:08:17.372Z,99.90
2018-04-08T07:10:44.931Z,99.90
2018-04-08T07:13:12.453Z,99.90
2018-04-08T07:15:39.984Z,99.90
2018-04-08T07:18:07.489Z,99.90
2018-04-08T07:20:35.022Z,99.90
2018-04-08T07:23:02.558Z,99.90
2018-04-08T07:25:30.154Z,99.90
2018-04-08T07:27:57.678Z,99.90
2018-04-08T07:30:25.997Z,99.90
2018-04-08T07:32:53.507Z,99.90
2018-04-08T07:35:21.752Z,99.90
2018-04-08T07:37:49.257Z,99.40
2018-04-08T07:40:16.810Z,99.20
2018-04-08T07:42:44.372Z,99.00
2018-04-08T07:45:11.946Z,98.80
2018-04-08T07:47:39.479Z,98.40
2018-04-08T07:50:07.756Z,97.70
2018-04-08T07:52:36.026Z,97.20
2018-04-08T07:55:04.323Z,96.70
2018-04-08T07:57:31.907Z,96.60
2018-04-08T07:59:59.411Z,95.60
2018-04-08T08:02:26.965Z,95.40
2018-04-08T08:04:54.550Z,95.10
2018-04-08T08:07:22.835Z,93.80
2018-04-08T08:09:50.394Z,93.90
2018-04-08T08:12:19.666Z,93.60
2018-04-08T08:14:48.371Z,93.70
2018-04-08T08:17:17.764Z,93.30
2018-04-08T08:19:46.094Z,93.50
2018-04-08T08:22:13.622Z,93.10
2018-04-08T08:24:41.186Z,92.70
2018-04-08T08:27:08.712Z,92.30
2018-04-08T08:29:36.261Z,91.80
2018-04-08T08:32:03.790Z,91.30
2018-04-08T08:34:31.317Z,90.80
2018-04-08T08:36:58.957Z,89.40
2018-04-08T08:39:26.572Z,88.50
2018-04-08T08:41:54.077Z,87.70
2018-04-08T08:44:21.596Z,86.80
2018-04-08T08:46:49.172Z,85.50
2018-04-08T08:49:16.685Z,85.20
2018-04-08T08:51:44.213Z,85.20
2018-04-08T08:54:11.730Z,84.80
2018-04-08T08:56:39.486Z,83.50
2018-04-08T08:59:06.991Z,82.90
2018-04-08T09:01:34.775Z,83.10
2018-04-08T09:04:02.343Z,82.90
2018-04-08T09:06:29.908Z,82.30
2018-04-08T09:08:57.465Z,82.20
2018-04-08T09:11:25.770Z,79.70
2018-04-08T09:13:53.291Z,79.60
2018-04-08T09:16:20.848Z,78.00
2018-04-08T09:18:49.149Z,77.20
2018-04-08T09:21:21.309Z,76.30
2018-04-08T09:24:04.477Z,73.40
2018-04-08T09:26:31.987Z,73.40
2018-04-08T09:29:00.268Z,72.40
2018-04-08T09:31:28.746Z,71.80
2018-04-08T09:33:57.075Z,71.60
2018-04-08T09:36:24.670Z,70.70
2018-04-08T09:38:52.189Z,70.90
2018-04-08T09:41:19.692Z,70.50
2018-04-08T09:43:48.014Z,67.40
2018-04-08T09:46:15.559Z,67.40
2018-04-08T09:48:43.108Z,66.10
2018-04-08T09:51:10.636Z,64.80
2018-04-08T09:53:38.969Z,63.80
2018-04-08T09:56:06.529Z,63.90
2018-04-08T09:58:35.891Z,63.80
2018-04-08T10:01:18.325Z,62.80
2018-04-08T10:03:47.386Z,61.80
2018-04-08T10:06:14.886Z,61.60
2018-04-08T10:08:42.488Z,59.90
2018-04-08T10:11:10.016Z,59.70
2018-04-08T10:13:37.540Z,59.80
2018-04-08T10:16:05.045Z,59.80
2018-04-08T10:18:32.604Z,58.10
2018-04-08T10:21:00.157Z,57.00
2018-04-08T10:23:27.743Z,56.90
2018-04-08T10:25:55.352Z,56.50
2018-04-08T10:28:22.884Z,55.60
2018-04-08T10:30:50.395Z,54.90
2018-04-08T10:33:17.962Z,54.10
2018-04-08T10:35:45.472Z,52.40
2018-04-08T10:38:13.007Z,48.20
2018-04-08T10:40:40.515Z,43.80
2018-04-08T10:43:08.072Z,42.20
2018-04-08T10:45:36.365Z,38.10
2018-04-08T10:48:04.608Z,38.00
2018-04-08T10:50:32.145Z,35.50
2018-04-08T10:52:59.655Z,33.60
2018-04-08T10:55:27.341Z,31.40
2018-04-08T10:57:54.877Z,29.80
2018-04-08T11:00:22.775Z,28.80
2018-04-08T11:02:50.363Z,27.50
2018-04-08T11:05:17.959Z,26.90
2018-04-08T11:07:46.328Z,25.70
2018-04-08T11:10:13.870Z,25.70
2018-04-08T11:12:41.484Z,25.00
2018-04-08T11:15:09.149Z,24.90
2018-04-08T11:17:36.698Z,24.10
2018-04-08T11:20:04.233Z,24.30
2018-04-08T11:22:31.835Z,25.60
2018-04-08T11:24:59.442Z,26.00
2018-04-08T11:27:27.868Z,26.50
2018-04-08T11:29:55.423Z,26.40
2018-04-08T11:32:23.090Z,27.10
2018-04-08T11:34:50.616Z,27.20
2018-04-08T11:37:18.928Z,25.60
2018-04-08T11:39:46.495Z,25.60
2018-04-08T11:42:14.027Z,24.30
2018-04-08T11:44:41.694Z,23.80
2018-04-08T11:47:09.316Z,23.40
2018-04-08T11:49:36.871Z,22.80
2018-04-08T11:52:04.442Z,22.30
2018-04-08T11:54:32.124Z,22.10
2018-04-08T11:56:59.860Z,21.40
2018-04-08T11:59:28.173Z,21.20
2018-04-08T12:01:56.455Z,21.50
2018-04-08T12:04:23.982Z,21.50
2018-04-08T12:06:51.550Z,21.90
2018-04-08T12:09:19.894Z,21.30
2018-04-08T12:11:47.430Z,21.20
2018-04-08T12:14:14.976Z,21.00
2018-04-08T12:16:42.613Z,20.70
2018-04-08T12:19:10.211Z,20.50
2018-04-08T12:21:37.722Z,20.20
2018-04-08T12:24:05.261Z,20.50
2018-04-08T12:26:50.524Z,19.90
2018-04-08T12:29:18.274Z,20.10
2018-04-08T12:31:45.865Z,20.30
2018-04-08T12:34:13.430Z,19.30
2018-04-08T12:36:40.978Z,19.40
2018-04-08T12:39:08.527Z,19.60
2018-04-08T12:41:36.018Z,19.30
2018-04-08T12:44:04.679Z,19.70
2018-04-08T12:46:32.311Z,19.70
2018-04-08T12:48:59.811Z,19.70
2018-04-08T12:51:27.324Z,20.00
2018-04-08T12:53:54.946Z,20.90
2018-04-08T12:56:22.616Z,21.00
2018-04-08T12:58:50.174Z,21.00
2018-04-08T13:01:17.701Z,20.80
2018-04-08T13:03:45.249Z,21.00
2018-04-08T13:06:12.779Z,21.10
2018-04-08T13:08:40.333Z,20.90
2018-04-08T13:11:08.925Z,20.20
2018-04-08T13:13:36.547Z,20.30
2018-04-08T13:16:05.196Z,20.20
2018-04-08T13:18:32.728Z,20.30
2018-04-08T13:21:00.240Z,21.40
2018-04-08T13:23:28.564Z,20.80
2018-04-08T13:25:56.865Z,20.40
2018-04-08T13:28:24.513Z,20.40
2018-04-08T13:30:52.026Z,21.10
2018-04-08T13:33:19.526Z,21.20
2018-04-08T13:35:47.198Z,20.90
2018-04-08T13:38:14.739Z,20.70
2018-04-08T13:40:43.018Z,20.40
2018-04-08T13:43:11.895Z,20.20
2018-04-08T13:45:39.397Z,20.20
2018-04-08T13:48:06.905Z,20.00
2018-04-08T13:50:34.483Z,19.40
2018-04-08T13:53:02.020Z,20.90
2018-04-08T13:55:29.544Z,20.80
2018-04-08T13:57:57.080Z,21.10
2018-04-08T14:00:24.603Z,20.90
2018-04-08T14:02:52.116Z,21.00
2018-04-08T14:05:19.642Z,21.10
2018-04-08T14:07:47.974Z,20.30
2018-04-08T14:10:15.720Z,20.30
2018-04-08T14:12:43.253Z,20.40
2018-04-08T14:15:10.776Z,20.80
2018-04-08T14:17:38.413Z,21.20
2018-04-08T14:20:05.932Z,21.80
2018-04-08T14:22:33.499Z,22.30
2018-04-08T14:25:01.108Z,22.70
2018-04-08T14:27:28.646Z,22.70
2018-04-08T14:29:56.230Z,22.20
2018-04-08T14:32:23.758Z,21.70
2018-04-08T14:34:51.318Z,21.90
2018-04-08T14:37:19.044Z,21.80
2018-04-08T14:39:47.390Z,21.90
2018-04-08T14:42:14.948Z,22.30
2018-04-08T14:44:42.494Z,22.00
2018-04-08T14:47:10.042Z,22.40
2018-04-08T14:49:37.804Z,22.40
2018-04-08T14:52:05.331Z,22.00
2018-04-08T14:54:32.961Z,21.90
2018-04-08T14:57:00.512Z,21.50
2018-04-08T14:59:28.060Z,22.60
2018-04-08T15:01:55.643Z,24.30
2018-04-08T15:04:23.183Z,25.70
2018-04-08T15:06:50.765Z,26.80
2018-04-08T15:09:18.331Z,27.30
2018-04-08T15:11:45.921Z,27.60
2018-04-08T15:14:14.212Z,26.90
2018-04-08T15:16:41.762Z,26.80
2018-04-08T15:19:09.364Z,26.60
2018-04-08T15:21:36.888Z,26.90
2018-04-08T15:24:04.530Z,26.40
2018-04-08T15:26:32.875Z,26.70
2018-04-08T15:29:00.484Z,26.60
2018-04-08T15:31:27.999Z,26.60
2018-04-08T15:33:55.546Z,26.90
2018-04-08T15:36:23.079Z,27.30
2018-04-08T15:38:51.417Z,27.60
2018-04-08T15:41:18.951Z,27.60
2018-04-08T15:43:46.508Z,27.70
2018-04-08T15:46:14.112Z,28.00
2018-04-08T15:48:42.430Z,29.20
2018-04-08T15:51:10.007Z,29.20
2018-04-08T15:53:37.580Z,29.20
2018-04-08T15:56:05.123Z,28.60
2018-04-08T15:58:32.684Z,28.60
2018-04-08T16:01:00.234Z,28.40
2018-04-08T16:03:27.844Z,28.50
2018-04-08T16:05:55.357Z,28.50
2018-04-08T16:08:22.935Z,28.50
2018-04-08T16:10:50.464Z,29.00
2018-04-08T16:13:18.100Z,29.80
2018-04-08T16:15:46.441Z,29.90
2018-04-08T16:18:13.970Z,29.80
2018-04-08T16:20:41.525Z,29.90
2018-04-08T16:23:09.089Z,29.80
2018-04-08T16:25:36.668Z,30.00
2018-04-08T16:28:04.236Z,30.20
2018-04-08T16:30:31.793Z,31.00
2018-04-08T16:32:59.359Z,31.00
2018-04-08T16:35:26.887Z,31.10
2018-04-08T16:37:54.461Z,31.20
2018-04-08T16:40:21.957Z,31.50
2018-04-08T16:42:49.481Z,31.80
2018-04-08T16:45:17.034Z,32.20
2018-04-08T16:47:44.566Z,32.80
2018-04-08T16:50:12.860Z,33.60
2018-04-08T16:52:40.440Z,33.50
2018-04-08T16:55:08.006Z,34.00
2018-04-08T16:57:35.531Z,34.50
2018-04-08T17:00:03.064Z,35.10
2018-04-08T17:02:30.667Z,35.30
2018-04-08T17:04:58.235Z,35.60
2018-04-08T17:07:25.754Z,35.80
2018-04-08T17:09:54.066Z,36.40
2018-04-08T17:12:21.641Z,36.40
2018-04-08T17:14:49.215Z,36.20
2018-04-08T17:17:16.752Z,36.40
2018-04-08T17:19:44.304Z,36.70
2018-04-08T17:22:11.866Z,37.30
2018-04-08T17:24:39.405Z,37.70
2018-04-08T17:27:06.988Z,38.40
2018-04-08T17:29:34.557Z,38.40
2018-04-08T17:32:02.098Z,38.80
2018-04-08T17:34:29.612Z,39.00
2018-04-08T17:36:57.199Z,39.50
2018-04-08T17:39:25.698Z,40.60
2018-04-08T17:41:53.329Z,40.60
2018-04-08T17:44:21.629Z,41.00
2018-04-08T17:46:49.935Z,41.30
2018-04-08T17:49:17.454Z,41.20
2018-04-08T17:51:44.988Z,41.30
2018-04-08T17:54:12.523Z,41.70
2018-04-08T17:56:40.094Z,42.10
2018-04-08T17:59:07.621Z,41.70
2018-04-08T18:01:35.277Z,41.80
2018-04-08T18:04:02.824Z,42.10
2018-04-08T18:06:31.163Z,42.70
2018-04-08T18:08:58.701Z,42.60
2018-04-08T18:11:26.235Z,42.70
2018-04-08T18:13:53.770Z,43.10
2018-04-08T18:16:22.191Z,44.00
2018-04-08T18:18:49.834Z,44.00
2018-04-08T18:21:17.372Z,44.30
2018-04-08T18:23:45.687Z,44.70
2018-04-08T18:26:13.225Z,44.60
2018-04-08T18:28:41.546Z,45.50
2018-04-08T18:31:09.142Z,45.40
2018-04-08T18:33:36.664Z,45.30
2018-04-08T18:36:04.300Z,45.20
2018-04-08T18:38:31.844Z,45.10
2018-04-08T18:41:00.134Z,45.00
2018-04-08T18:43:30.543Z,45.00
2018-04-08T18:45:58.195Z,45.00
2018-04-08T18:48:25.744Z,45.00
2018-04-08T18:50:53.273Z,45.20
2018-04-08T18:53:20.804Z,45.30
2018-04-08T18:55:48.383Z,45.70
2018-04-08T18:58:16.731Z,45.90
2018-04-08T19:00:44.248Z,45.90
2018-04-08T19:03:11.795Z,45.70
2018-04-08T19:05:39.348Z,45.70
2018-04-08T19:08:06.877Z,45.70
2018-04-08T19:10:34.390Z,45.90
2018-04-08T19:13:03.384Z,45.80
2018-04-08T19:15:31.392Z,46.30
2018-04-08T19:18:03.467Z,46.50
2018-04-08T19:20:32.080Z,46.30
2018-04-08T19:23:01.087Z,46.60
2018-04-08T19:25:28.674Z,46.80
2018-04-08T19:27:57.778Z,46.90
2018-04-08T19:30:26.807Z,46.90
2018-04-08T19:32:55.801Z,47.00
2018-04-08T19:35:24.486Z,47.20
2018-04-08T19:37:52.033Z,47.40
2018-04-08T19:40:19.573Z,47.50
2018-04-08T19:42:48.036Z,47.60
2018-04-08T19:45:15.572Z,47.60
2018-04-08T19:47:43.976Z,47.80
2018-04-08T19:50:11.705Z,48.00
2018-04-08T19:52:39.259Z,48.20
2018-04-08T19:55:06.819Z,48.30
2018-04-08T19:57:34.410Z,48.60
2018-04-08T20:00:01.985Z,48.60
2018-04-08T20:02:29.668Z,48.80
2018-04-08T20:04:57.257Z,48.90
2018-04-08T20:07:24.804Z,49.10
2018-04-08T20:09:52.416Z,49.10
2018-04-08T20:12:19.955Z,49.40
2018-04-08T20:14:47.495Z,49.60
2018-04-08T20:17:15.077Z,49.80
2018-04-08T20:19:42.599Z,50.00
2018-04-08T20:22:10.896Z,50.30
2018-04-08T20:24:38.468Z,50.30
2018-04-08T20:27:05.995Z,50.50
2018-04-08T20:29:34.327Z,51.80
2018-04-08T20:32:01.936Z,51.60
2018-04-08T20:34:29.626Z,51.40
2018-04-08T20:36:57.164Z,51.70
2018-04-08T20:39:25.464Z,52.00
2018-04-08T20:41:53.009Z,52.00
2018-04-08T20:44:20.527Z,52.20
2018-04-08T20:46:48.059Z,52.20
2018-04-08T20:49:15.604Z,52.40
2018-04-08T20:51:43.268Z,52.90
2018-04-08T20:54:10.858Z,53.20
2018-04-08T20:56:38.376Z,53.50
2018-04-08T20:59:05.899Z,53.80
2018-04-08T21:01:33.455Z,54.00
2018-04-08T21:04:01.000Z,54.40
2018-04-08T21:06:28.557Z,54.90
2018-04-08T21:08:56.113Z,55.70
2018-04-08T21:11:24.696Z,56.20
2018-04-08T21:13:52.241Z,56.70
2018-04-08T21:16:19.782Z,57.50
2018-04-08T21:18:47.312Z,57.60
2018-04-08T21:21:15.643Z,58.40
2018-04-08T21:23:43.211Z,58.40
2018-04-08T21:26:10.747Z,58.80
2018-04-08T21:28:38.386Z,59.60
2018-04-08T21:31:06.673Z,59.60
2018-04-08T21:33:34.195Z,59.60
2018-04-08T21:36:03.198Z,59.90
2018-04-08T21:38:30.730Z,60.20
2018-04-08T21:40:58.245Z,61.20
2018-04-08T21:43:25.822Z,61.00
2018-04-08T21:45:53.328Z,61.90
2018-04-08T21:48:20.862Z,63.10
2018-04-08T21:50:48.403Z,64.10
2018-04-08T21:53:15.934Z,65.20
2018-04-08T21:55:43.455Z,66.50
2018-04-08T21:58:10.982Z,67.90
2018-04-08T22:00:38.507Z,69.80
2018-04-08T22:03:06.039Z,71.90
2018-04-08T22:05:33.554Z,73.20
2018-04-08T22:08:01.084Z,74.70
2018-04-08T22:10:28.643Z,76.00
2018-04-08T22:12:56.939Z,80.90
2018-04-08T22:15:24.454Z,80.90
2018-04-08T22:17:51.995Z,81.90
2018-04-08T22:20:19.502Z,82.60
2018-04-08T22:22:47.825Z,85.80
2018-04-08T22:25:15.369Z,85.80
2018-04-08T22:27:42.887Z,87.70
2018-04-08T22:30:10.404Z,88.70
2018-04-08T22:32:37.939Z,90.10
2018-04-08T22:35:05.949Z,90.20
2018-04-08T22:37:33.513Z,90.70
2018-04-08T22:40:01.020Z,91.20
2018-04-08T22:42:28.556Z,91.70
2018-04-08T22:44:56.078Z,92.40
2018-04-08T22:47:23.719Z,92.80
2018-04-08T22:49:51.368Z,93.30
2018-04-08T22:52:18.921Z,93.60
2018-04-08T22:54:47.232Z,95.50
2018-04-08T22:57:14.793Z,95.40
2018-04-08T22:59:42.306Z,95.80
2018-04-08T23:02:10.616Z,97.00
2018-04-08T23:04:38.141Z,97.00
2018-04-08T23:07:05.689Z,97.50
2018-04-08T23:09:33.226Z,98.20
2018-04-08T23:12:00.772Z,98.90
2018-04-08T23:14:28.276Z,99.50
2018-04-08T23:16:55.827Z,99.90
2018-04-08T23:19:23.345Z,99.90
2018-04-08T23:21:50.919Z,99.90
2018-04-08T23:24:18.488Z,99.30
2018-04-08T23:26:46.015Z,99.30
2018-04-08T23:29:13.528Z,99.90
2018-04-08T23:31:41.075Z,99.90
2018-04-08T23:34:08.620Z,99.90
2018-04-08T23:36:36.236Z,99.90
2018-04-08T23:39:03.762Z,99.90
2018-04-08T23:41:31.296Z,99.90
2018-04-08T23:43:58.850Z,99.90
2018-04-08T23:46:26.376Z,99.90
2018-04-08T23:48:53.899Z,99.90
2018-04-08T23:51:21.424Z,99.90
2018-04-08T23:53:48.949Z,99.90
2018-04-08T23:56:16.541Z,99.90
2018-04-08T23:58:44.062Z,99.90
